sensor_id;sensor_type;location;lat;lon;timestamp;temperature;humidity
52127;DHT22;38120;53.176;6.614;2022-12-18T00:01:24;-2.70;99.90
52127;DHT22;38120;53.176;6.614;2022-12-18T00:03:50;-2.70;99.90
52127;DHT22;38120;53.176;6.614;2022-12-18T00:06:17;-2.80;99.90
52127;DHT22;38120;53.176;6.614;2022-12-18T00:08:44;-2.80;99.90
52127;DHT22;38120;53.176;6.614;2022-12-18T00:11:15;-2.90;99.90
52127;DHT22;38120;53.176;6.614;2022-12-18T00:13:41;-2.80;99.90
52127;DHT22;38120;53.176;6.614;2022-12-18T00:16:10;-2.80;99.90
52127;DHT22;38120;53.176;6.614;2022-12-18T00:18:37;-2.90;99.90
52127;DHT22;38120;53.176;6.614;2022-12-18T00:21:05;-2.80;99.90
52127;DHT22;38120;53.176;6.614;2022-12-18T00:23:32;-2.80;99.90
52127;DHT22;38120;53.176;6.614;2022-12-18T00:26:00;-2.90;99.90
52127;DHT22;38120;53.176;6.614;2022-12-18T00:28:26;-2.80;99.90
52127;DHT22;38120;53.176;6.614;2022-12-18T00:31:00;-2.70;99.90
52127;DHT22;38120;53.176;6.614;2022-12-18T00:33:26;-2.80;99.90
52127;DHT22;38120;53.176;6.614;2022-12-18T00:35:52;-2.10;99.90
52127;DHT22;38120;53.176;6.614;2022-12-18T00:38:18;-2.80;99.90
52127;DHT22;38120;53.176;6.614;2022-12-18T00:40:44;-2.90;99.90
52127;DHT22;38120;53.176;6.614;2022-12-18T00:43:09;-2.90;99.90
52127;DHT22;38120;53.176;6.614;2022-12-18T00:45:35;-2.80;99.90
52127;DHT22;38120;53.176;6.614;2022-12-18T00:48:01;-2.80;99.90
52127;DHT22;38120;53.176;6.614;2022-12-18T00:50:26;-2.80;99.90
52127;DHT22;38120;53.176;6.614;2022-12-18T00:52:52;-2.80;99.90
52127;DHT22;38120;53.176;6.614;2022-12-18T00:55:18;-2.80;99.90
52127;DHT22;38120;53.176;6.614;2022-12-18T00:57:44;-2.80;99.90
52127;DHT22;38120;53.176;6.614;2022-12-18T01:00:12;-2.70;99.90
52127;DHT22;38120;53.176;6.614;2022-12-18T01:02:39;-2.80;99.90
52127;DHT22;38120;53.176;6.614;2022-12-18T01:05:05;-2.90;99.90
52127;DHT22;38120;53.176;6.614;2022-12-18T01:07:31;-2.90;99.90
52127;DHT22;38120;53.176;6.614;2022-12-18T01:09:56;-2.90;99.90
52127;DHT22;38120;53.176;6.614;2022-12-18T01:12:22;-2.00;99.90
52127;DHT22;38120;53.176;6.614;2022-12-18T01:14:48;-3.00;99.90
52127;DHT22;38120;53.176;6.614;2022-12-18T01:17:13;-3.00;99.90
52127;DHT22;38120;53.176;6.614;2022-12-18T01:19:39;-3.00;99.90
52127;DHT22;38120;53.176;6.614;2022-12-18T01:22:05;-3.10;99.90
52127;DHT22;38120;53.176;6.614;2022-12-18T01:24:31;-3.20;99.90
52127;DHT22;38120;53.176;6.614;2022-12-18T01:26:56;-3.20;99.90
52127;DHT22;38120;53.176;6.614;2022-12-18T01:29:23;-3.20;99.90
52127;DHT22;38120;53.176;6.614;2022-12-18T01:31:48;-3.20;99.90
52127;DHT22;38120;53.176;6.614;2022-12-18T01:34:14;-3.20;99.90
52127;DHT22;38120;53.176;6.614;2022-12-18T01:36:40;-3.30;99.90
52127;DHT22;38120;53.176;6.614;2022-12-18T01:39:13;-3.30;99.90
52127;DHT22;38120;53.176;6.614;2022-12-18T01:41:39;-3.30;99.90
52127;DHT22;38120;53.176;6.614;2022-12-18T01:50:11;-3.30;99.90
52127;DHT22;38120;53.176;6.614;2022-12-18T01:52:38;-3.30;99.90
52127;DHT22;38120;53.176;6.614;2022-12-18T01:55:06;-3.40;99.90
52127;DHT22;38120;53.176;6.614;2022-12-18T01:57:32;-3.40;99.90
52127;DHT22;38120;53.176;6.614;2022-12-18T02:00:06;-3.50;99.90
52127;DHT22;38120;53.176;6.614;2022-12-18T02:02:32;-3.50;99.90
52127;DHT22;38120;53.176;6.614;2022-12-18T02:04:58;-3.50;99.90
52127;DHT22;38120;53.176;6.614;2022-12-18T02:10:18;-3.50;99.90
52127;DHT22;38120;53.176;6.614;2022-12-18T02:13:09;-3.60;99.90
52127;DHT22;38120;53.176;6.614;2022-12-18T02:18:27;-3.60;99.90
52127;DHT22;38120;53.176;6.614;2022-12-18T02:21:08;-3.60;99.90
52127;DHT22;38120;53.176;6.614;2022-12-18T02:28:56;-3.60;99.90
52127;DHT22;38120;53.176;6.614;2022-12-18T02:31:27;-3.70;99.90
52127;DHT22;38120;53.176;6.614;2022-12-18T02:33:56;-3.70;99.90
52127;DHT22;38120;53.176;6.614;2022-12-18T02:36:24;-3.70;99.90
52127;DHT22;38120;53.176;6.614;2022-12-18T02:38:52;-3.60;99.90
52127;DHT22;38120;53.176;6.614;2022-12-18T02:41:19;-3.70;99.90
52127;DHT22;38120;53.176;6.614;2022-12-18T02:43:49;-3.70;99.90
52127;DHT22;38120;53.176;6.614;2022-12-18T02:46:35;-3.80;99.90
52127;DHT22;38120;53.176;6.614;2022-12-18T02:51:48;-3.70;99.90
52127;DHT22;38120;53.176;6.614;2022-12-18T02:54:37;-3.70;99.90
52127;DHT22;38120;53.176;6.614;2022-12-18T03:00:08;-3.80;99.90
52127;DHT22;38120;53.176;6.614;2022-12-18T03:02:47;-3.60;99.90
52127;DHT22;38120;53.176;6.614;2022-12-18T03:05:17;-3.70;99.90
52127;DHT22;38120;53.176;6.614;2022-12-18T03:07:56;-3.70;99.90
52127;DHT22;38120;53.176;6.614;2022-12-18T03:10:27;-3.80;99.90
52127;DHT22;38120;53.176;6.614;2022-12-18T03:13:09;-3.80;99.90
52127;DHT22;38120;53.176;6.614;2022-12-18T03:15:45;-3.80;99.90
52127;DHT22;38120;53.176;6.614;2022-12-18T03:18:17;-3.90;99.90
52127;DHT22;38120;53.176;6.614;2022-12-18T03:20:46;-3.90;99.90
52127;DHT22;38120;53.176;6.614;2022-12-18T03:23:16;-3.90;99.90
52127;DHT22;38120;53.176;6.614;2022-12-18T03:25:44;-3.90;99.90
52127;DHT22;38120;53.176;6.614;2022-12-18T03:28:14;-4.00;99.90
52127;DHT22;38120;53.176;6.614;2022-12-18T03:30:43;-3.90;99.90
52127;DHT22;38120;53.176;6.614;2022-12-18T03:33:35;-4.00;99.90
52127;DHT22;38120;53.176;6.614;2022-12-18T03:36:03;-4.00;99.90
52127;DHT22;38120;53.176;6.614;2022-12-18T03:38:29;-4.00;99.90
52127;DHT22;38120;53.176;6.614;2022-12-18T03:42:08;-4.10;99.90
52127;DHT22;38120;53.176;6.614;2022-12-18T03:47:11;-4.10;99.90
52127;DHT22;38120;53.176;6.614;2022-12-18T03:49:47;-4.10;99.90
52127;DHT22;38120;53.176;6.614;2022-12-18T03:52:30;-4.10;99.90
52127;DHT22;38120;53.176;6.614;2022-12-18T03:55:00;-4.10;99.90
52127;DHT22;38120;53.176;6.614;2022-12-18T03:57:30;-4.10;99.90
52127;DHT22;38120;53.176;6.614;2022-12-18T04:00:06;-4.20;99.90
52127;DHT22;38120;53.176;6.614;2022-12-18T04:02:34;-4.20;99.90
52127;DHT22;38120;53.176;6.614;2022-12-18T04:05:02;-4.20;99.90
52127;DHT22;38120;53.176;6.614;2022-12-18T04:07:29;-4.20;99.90
52127;DHT22;38120;53.176;6.614;2022-12-18T04:09:56;-4.30;99.90
52127;DHT22;38120;53.176;6.614;2022-12-18T04:12:25;-4.20;99.90
52127;DHT22;38120;53.176;6.614;2022-12-18T04:14:54;-4.30;99.90
52127;DHT22;38120;53.176;6.614;2022-12-18T04:17:20;-4.30;99.90
52127;DHT22;38120;53.176;6.614;2022-12-18T04:19:45;-4.30;99.90
52127;DHT22;38120;53.176;6.614;2022-12-18T04:22:11;-4.30;99.90
52127;DHT22;38120;53.176;6.614;2022-12-18T04:24:37;-4.30;99.90
52127;DHT22;38120;53.176;6.614;2022-12-18T04:27:03;-4.40;99.90
52127;DHT22;38120;53.176;6.614;2022-12-18T04:29:29;-4.40;99.90
52127;DHT22;38120;53.176;6.614;2022-12-18T04:31:54;-4.40;99.90
52127;DHT22;38120;53.176;6.614;2022-12-18T04:34:20;-4.40;99.90
52127;DHT22;38120;53.176;6.614;2022-12-18T04:36:46;-4.40;99.90
52127;DHT22;38120;53.176;6.614;2022-12-18T04:39:12;-4.40;99.90
52127;DHT22;38120;53.176;6.614;2022-12-18T04:41:37;-4.40;99.90
52127;DHT22;38120;53.176;6.614;2022-12-18T04:44:04;-4.40;99.90
52127;DHT22;38120;53.176;6.614;2022-12-18T04:46:30;-4.40;99.90
52127;DHT22;38120;53.176;6.614;2022-12-18T04:48:55;-4.50;99.90
52127;DHT22;38120;53.176;6.614;2022-12-18T04:51:21;-4.50;99.90
52127;DHT22;38120;53.176;6.614;2022-12-18T04:53:47;-4.50;99.90
52127;DHT22;38120;53.176;6.614;2022-12-18T04:56:15;-4.50;99.90
52127;DHT22;38120;53.176;6.614;2022-12-18T04:58:42;-4.50;99.90
52127;DHT22;38120;53.176;6.614;2022-12-18T05:01:09;-4.60;99.90
52127;DHT22;38120;53.176;6.614;2022-12-18T05:03:36;-4.60;99.90
52127;DHT22;38120;53.176;6.614;2022-12-18T05:06:03;-4.60;99.90
52127;DHT22;38120;53.176;6.614;2022-12-18T05:08:28;-4.60;99.90
52127;DHT22;38120;53.176;6.614;2022-12-18T05:11:05;-4.60;99.90
52127;DHT22;38120;53.176;6.614;2022-12-18T05:13:31;-4.60;99.90
52127;DHT22;38120;53.176;6.614;2022-12-18T05:15:57;-4.60;99.90
52127;DHT22;38120;53.176;6.614;2022-12-18T05:18:24;-4.60;99.90
52127;DHT22;38120;53.176;6.614;2022-12-18T05:20:51;-4.60;99.90
52127;DHT22;38120;53.176;6.614;2022-12-18T05:23:17;-4.60;99.90
52127;DHT22;38120;53.176;6.614;2022-12-18T05:25:42;-4.60;99.90
52127;DHT22;38120;53.176;6.614;2022-12-18T05:28:11;-4.70;99.90
52127;DHT22;38120;53.176;6.614;2022-12-18T05:30:37;-4.60;99.90
52127;DHT22;38120;53.176;6.614;2022-12-18T05:33:03;-4.70;99.90
52127;DHT22;38120;53.176;6.614;2022-12-18T05:35:28;-4.70;99.90
52127;DHT22;38120;53.176;6.614;2022-12-18T05:37:54;-4.80;99.90
52127;DHT22;38120;53.176;6.614;2022-12-18T05:40:20;-4.80;99.90
52127;DHT22;38120;53.176;6.614;2022-12-18T05:42:46;-4.80;99.90
52127;DHT22;38120;53.176;6.614;2022-12-18T05:45:11;-4.80;99.90
52127;DHT22;38120;53.176;6.614;2022-12-18T05:47:37;-4.70;99.90
52127;DHT22;38120;53.176;6.614;2022-12-18T05:50:03;-4.70;99.90
52127;DHT22;38120;53.176;6.614;2022-12-18T05:52:30;-4.70;99.90
52127;DHT22;38120;53.176;6.614;2022-12-18T05:54:56;-4.70;99.90
52127;DHT22;38120;53.176;6.614;2022-12-18T05:57:21;-4.70;99.90
52127;DHT22;38120;53.176;6.614;2022-12-18T05:59:47;-4.80;99.90
52127;DHT22;38120;53.176;6.614;2022-12-18T06:02:12;-4.80;99.90
52127;DHT22;38120;53.176;6.614;2022-12-18T06:04:38;-4.80;99.90
52127;DHT22;38120;53.176;6.614;2022-12-18T06:07:04;-4.80;99.90
52127;DHT22;38120;53.176;6.614;2022-12-18T06:09:29;-4.80;99.90
52127;DHT22;38120;53.176;6.614;2022-12-18T06:11:55;-4.80;99.90
52127;DHT22;38120;53.176;6.614;2022-12-18T06:14:21;-4.80;99.90
52127;DHT22;38120;53.176;6.614;2022-12-18T06:16:46;-4.90;99.90
52127;DHT22;38120;53.176;6.614;2022-12-18T06:19:16;-4.90;99.90
52127;DHT22;38120;53.176;6.614;2022-12-18T06:21:43;-4.90;99.90
52127;DHT22;38120;53.176;6.614;2022-12-18T06:24:09;-4.60;99.90
52127;DHT22;38120;53.176;6.614;2022-12-18T06:26:37;-5.00;99.90
52127;DHT22;38120;53.176;6.614;2022-12-18T06:29:03;-4.90;99.90
52127;DHT22;38120;53.176;6.614;2022-12-18T06:31:29;-5.00;99.90
52127;DHT22;38120;53.176;6.614;2022-12-18T06:33:54;-5.00;99.90
52127;DHT22;38120;53.176;6.614;2022-12-18T06:36:20;-5.00;99.90
52127;DHT22;38120;53.176;6.614;2022-12-18T06:38:46;-5.00;99.90
52127;DHT22;38120;53.176;6.614;2022-12-18T06:41:18;-5.00;99.90
52127;DHT22;38120;53.176;6.614;2022-12-18T06:43:44;-5.00;99.90
52127;DHT22;38120;53.176;6.614;2022-12-18T06:46:10;-5.10;99.90
52127;DHT22;38120;53.176;6.614;2022-12-18T06:48:36;-5.00;99.90
52127;DHT22;38120;53.176;6.614;2022-12-18T06:51:02;-5.10;99.90
52127;DHT22;38120;53.176;6.614;2022-12-18T06:53:28;-5.00;99.90
52127;DHT22;38120;53.176;6.614;2022-12-18T06:56:05;-5.00;99.90
52127;DHT22;38120;53.176;6.614;2022-12-18T06:58:31;-5.10;99.90
52127;DHT22;38120;53.176;6.614;2022-12-18T07:01:01;-5.10;99.90
52127;DHT22;38120;53.176;6.614;2022-12-18T07:03:28;-5.10;99.90
52127;DHT22;38120;53.176;6.614;2022-12-18T07:05:54;-5.10;99.90
52127;DHT22;38120;53.176;6.614;2022-12-18T07:08:20;-5.10;99.90
52127;DHT22;38120;53.176;6.614;2022-12-18T07:10:46;-5.10;99.90
52127;DHT22;38120;53.176;6.614;2022-12-18T07:13:15;-5.10;99.90
52127;DHT22;38120;53.176;6.614;2022-12-18T07:15:40;-5.00;99.90
52127;DHT22;38120;53.176;6.614;2022-12-18T07:18:06;-5.00;99.90
52127;DHT22;38120;53.176;6.614;2022-12-18T07:20:32;-5.00;99.90
52127;DHT22;38120;53.176;6.614;2022-12-18T07:22:57;-5.00;99.90
52127;DHT22;38120;53.176;6.614;2022-12-18T07:25:23;-5.00;99.90
52127;DHT22;38120;53.176;6.614;2022-12-18T07:27:49;-5.00;99.90
52127;DHT22;38120;53.176;6.614;2022-12-18T07:30:14;-4.90;99.90
52127;DHT22;38120;53.176;6.614;2022-12-18T07:32:40;-4.90;99.90
52127;DHT22;38120;53.176;6.614;2022-12-18T07:35:06;-4.90;99.90
52127;DHT22;38120;53.176;6.614;2022-12-18T07:37:32;-5.00;99.90
52127;DHT22;38120;53.176;6.614;2022-12-18T07:39:57;-5.00;99.90
52127;DHT22;38120;53.176;6.614;2022-12-18T07:42:23;-5.00;99.90
52127;DHT22;38120;53.176;6.614;2022-12-18T07:45:01;-5.00;99.90
52127;DHT22;38120;53.176;6.614;2022-12-18T07:47:28;-5.10;99.90
52127;DHT22;38120;53.176;6.614;2022-12-18T07:49:53;-5.20;99.90
52127;DHT22;38120;53.176;6.614;2022-12-18T07:52:19;-5.10;99.90
52127;DHT22;38120;53.176;6.614;2022-12-18T07:54:45;-5.10;99.90
52127;DHT22;38120;53.176;6.614;2022-12-18T07:57:11;-5.20;99.90
52127;DHT22;38120;53.176;6.614;2022-12-18T07:59:36;-5.20;99.90
52127;DHT22;38120;53.176;6.614;2022-12-18T08:02:02;-5.20;99.90
52127;DHT22;38120;53.176;6.614;2022-12-18T08:04:28;-5.20;99.90
52127;DHT22;38120;53.176;6.614;2022-12-18T08:06:54;-5.20;99.90
52127;DHT22;38120;53.176;6.614;2022-12-18T08:09:19;-5.10;99.90
52127;DHT22;38120;53.176;6.614;2022-12-18T08:11:45;-5.10;99.90
52127;DHT22;38120;53.176;6.614;2022-12-18T08:14:11;-5.10;99.90
52127;DHT22;38120;53.176;6.614;2022-12-18T08:16:37;-5.10;99.90
52127;DHT22;38120;53.176;6.614;2022-12-18T08:19:03;-5.00;99.90
52127;DHT22;38120;53.176;6.614;2022-12-18T08:21:30;-5.00;99.90
52127;DHT22;38120;53.176;6.614;2022-12-18T08:23:58;-4.90;99.90
52127;DHT22;38120;53.176;6.614;2022-12-18T08:26:26;-4.90;99.90
52127;DHT22;38120;53.176;6.614;2022-12-18T08:28:54;-4.90;99.90
52127;DHT22;38120;53.176;6.614;2022-12-18T08:31:20;-5.00;99.90
52127;DHT22;38120;53.176;6.614;2022-12-18T08:33:48;-5.00;99.90
52127;DHT22;38120;53.176;6.614;2022-12-18T08:36:15;-5.00;99.90
52127;DHT22;38120;53.176;6.614;2022-12-18T08:38:40;-5.00;99.90
52127;DHT22;38120;53.176;6.614;2022-12-18T08:41:09;-5.00;99.90
52127;DHT22;38120;53.176;6.614;2022-12-18T08:43:35;-5.00;99.90
52127;DHT22;38120;53.176;6.614;2022-12-18T08:46:21;-4.90;99.90
52127;DHT22;38120;53.176;6.614;2022-12-18T08:48:47;-5.00;99.90
52127;DHT22;38120;53.176;6.614;2022-12-18T08:51:15;-5.00;99.90
52127;DHT22;38120;53.176;6.614;2022-12-18T08:53:41;-4.90;99.90
52127;DHT22;38120;53.176;6.614;2022-12-18T08:56:08;-4.90;99.90
52127;DHT22;38120;53.176;6.614;2022-12-18T08:58:33;-4.90;99.90
52127;DHT22;38120;53.176;6.614;2022-12-18T09:01:00;-4.80;99.90
52127;DHT22;38120;53.176;6.614;2022-12-18T09:03:27;-4.90;99.90
52127;DHT22;38120;53.176;6.614;2022-12-18T09:05:53;-4.80;99.90
52127;DHT22;38120;53.176;6.614;2022-12-18T09:08:19;-4.80;99.90
52127;DHT22;38120;53.176;6.614;2022-12-18T09:10:46;-4.70;99.90
52127;DHT22;38120;53.176;6.614;2022-12-18T09:13:12;-4.70;99.90
52127;DHT22;38120;53.176;6.614;2022-12-18T09:15:42;-4.60;99.90
52127;DHT22;38120;53.176;6.614;2022-12-18T09:18:09;-4.50;99.90
52127;DHT22;38120;53.176;6.614;2022-12-18T09:20:35;-4.60;99.90
52127;DHT22;38120;53.176;6.614;2022-12-18T09:23:01;-4.50;99.90
52127;DHT22;38120;53.176;6.614;2022-12-18T09:25:29;-4.40;99.90
52127;DHT22;38120;53.176;6.614;2022-12-18T09:27:59;-4.30;99.90
52127;DHT22;38120;53.176;6.614;2022-12-18T09:30:26;-3.70;99.90
52127;DHT22;38120;53.176;6.614;2022-12-18T09:32:51;-4.20;99.90
52127;DHT22;38120;53.176;6.614;2022-12-18T09:35:17;-4.20;99.90
52127;DHT22;38120;53.176;6.614;2022-12-18T09:37:43;-4.10;99.90
52127;DHT22;38120;53.176;6.614;2022-12-18T09:40:19;-4.10;99.90
52127;DHT22;38120;53.176;6.614;2022-12-18T09:42:51;-3.90;99.90
52127;DHT22;38120;53.176;6.614;2022-12-18T09:45:17;-3.90;99.90
52127;DHT22;38120;53.176;6.614;2022-12-18T09:47:45;-3.70;99.90
52127;DHT22;38120;53.176;6.614;2022-12-18T09:50:32;-3.70;99.90
52127;DHT22;38120;53.176;6.614;2022-12-18T09:53:02;-3.60;99.90
52127;DHT22;38120;53.176;6.614;2022-12-18T09:55:34;-3.60;99.90
52127;DHT22;38120;53.176;6.614;2022-12-18T10:01:18;-3.50;99.90
52127;DHT22;38120;53.176;6.614;2022-12-18T10:03:46;-3.50;99.90
52127;DHT22;38120;53.176;6.614;2022-12-18T10:08:58;-3.60;99.90
52127;DHT22;38120;53.176;6.614;2022-12-18T10:11:51;-3.60;99.90
52127;DHT22;38120;53.176;6.614;2022-12-18T10:14:34;-3.50;99.90
52127;DHT22;38120;53.176;6.614;2022-12-18T10:22:56;-3.30;99.90
52127;DHT22;38120;53.176;6.614;2022-12-18T10:28:13;-3.20;99.90
52127;DHT22;38120;53.176;6.614;2022-12-18T10:30:41;-3.10;99.90
52127;DHT22;38120;53.176;6.614;2022-12-18T10:33:13;-3.10;99.90
52127;DHT22;38120;53.176;6.614;2022-12-18T10:35:41;-3.10;99.90
52127;DHT22;38120;53.176;6.614;2022-12-18T10:43:44;-3.00;99.90
52127;DHT22;38120;53.176;6.614;2022-12-18T10:48:50;-2.90;99.90
52127;DHT22;38120;53.176;6.614;2022-12-18T10:51:32;-2.80;99.90
52127;DHT22;38120;53.176;6.614;2022-12-18T10:54:16;-2.80;99.90
52127;DHT22;38120;53.176;6.614;2022-12-18T10:56:42;-2.80;99.90
52127;DHT22;38120;53.176;6.614;2022-12-18T10:59:11;-2.80;99.90
52127;DHT22;38120;53.176;6.614;2022-12-18T11:01:56;-2.70;99.90
52127;DHT22;38120;53.176;6.614;2022-12-18T11:04:32;-2.60;99.90
52127;DHT22;38120;53.176;6.614;2022-12-18T11:07:05;-2.50;99.90
52127;DHT22;38120;53.176;6.614;2022-12-18T11:09:36;-2.50;99.90
52127;DHT22;38120;53.176;6.614;2022-12-18T11:12:06;-2.40;99.90
52127;DHT22;38120;53.176;6.614;2022-12-18T11:14:50;-2.40;99.90
52127;DHT22;38120;53.176;6.614;2022-12-18T11:20:19;-2.30;99.90
52127;DHT22;38120;53.176;6.614;2022-12-18T11:22:54;-2.30;99.90
52127;DHT22;38120;53.176;6.614;2022-12-18T11:25:22;-2.20;99.90
52127;DHT22;38120;53.176;6.614;2022-12-18T11:27:54;-2.10;99.90
52127;DHT22;38120;53.176;6.614;2022-12-18T11:32:52;-2.00;99.90
52127;DHT22;38120;53.176;6.614;2022-12-18T11:35:28;-2.00;99.90
52127;DHT22;38120;53.176;6.614;2022-12-18T11:38:01;-1.90;99.90
52127;DHT22;38120;53.176;6.614;2022-12-18T11:40:36;-1.90;99.90
52127;DHT22;38120;53.176;6.614;2022-12-18T11:45:53;-1.80;99.90
52127;DHT22;38120;53.176;6.614;2022-12-18T11:48:37;-1.80;99.90
52127;DHT22;38120;53.176;6.614;2022-12-18T11:51:18;-1.80;99.90
52127;DHT22;38120;53.176;6.614;2022-12-18T11:53:46;-1.70;99.90
52127;DHT22;38120;53.176;6.614;2022-12-18T11:56:30;-1.70;99.90
52127;DHT22;38120;53.176;6.614;2022-12-18T11:59:23;-1.70;99.90
52127;DHT22;38120;53.176;6.614;2022-12-18T12:02:01;-1.70;99.90
52127;DHT22;38120;53.176;6.614;2022-12-18T12:13:29;-1.60;99.90
52127;DHT22;38120;53.176;6.614;2022-12-18T12:16:34;-1.60;99.90
52127;DHT22;38120;53.176;6.614;2022-12-18T12:21:43;-1.60;99.90
52127;DHT22;38120;53.176;6.614;2022-12-18T12:38:17;-1.40;99.90
52127;DHT22;38120;53.176;6.614;2022-12-18T12:40:51;-1.40;99.90
52127;DHT22;38120;53.176;6.614;2022-12-18T12:43:52;-1.30;99.90
52127;DHT22;38120;53.176;6.614;2022-12-18T12:46:21;-1.30;99.90
52127;DHT22;38120;53.176;6.614;2022-12-18T12:49:04;-1.30;99.90
52127;DHT22;38120;53.176;6.614;2022-12-18T12:51:37;-1.20;99.90
52127;DHT22;38120;53.176;6.614;2022-12-18T12:54:09;-1.20;99.90
52127;DHT22;38120;53.176;6.614;2022-12-18T12:59:32;-1.10;99.90
52127;DHT22;38120;53.176;6.614;2022-12-18T13:04:42;-0.60;99.90
52127;DHT22;38120;53.176;6.614;2022-12-18T13:07:16;-1.00;99.90
52127;DHT22;38120;53.176;6.614;2022-12-18T13:10:12;-1.00;99.90
52127;DHT22;38120;53.176;6.614;2022-12-18T13:12:58;-0.90;99.90
52127;DHT22;38120;53.176;6.614;2022-12-18T13:20:39;-0.90;99.90
52127;DHT22;38120;53.176;6.614;2022-12-18T13:26:00;-0.80;99.90
52127;DHT22;38120;53.176;6.614;2022-12-18T13:31:58;-0.80;99.90
52127;DHT22;38120;53.176;6.614;2022-12-18T13:34:24;-0.70;99.90
52127;DHT22;38120;53.176;6.614;2022-12-18T13:36:52;-0.80;99.90
52127;DHT22;38120;53.176;6.614;2022-12-18T13:44:35;-0.80;99.90
52127;DHT22;38120;53.176;6.614;2022-12-18T13:47:03;-0.80;99.90
52127;DHT22;38120;53.176;6.614;2022-12-18T13:52:02;-0.80;99.90
52127;DHT22;38120;53.176;6.614;2022-12-18T13:54:39;-0.80;99.90
52127;DHT22;38120;53.176;6.614;2022-12-18T13:57:27;-0.80;99.90
52127;DHT22;38120;53.176;6.614;2022-12-18T13:59:53;-0.80;99.90
52127;DHT22;38120;53.176;6.614;2022-12-18T14:02:24;-0.80;99.90
52127;DHT22;38120;53.176;6.614;2022-12-18T14:04:51;-0.80;99.90
52127;DHT22;38120;53.176;6.614;2022-12-18T14:07:21;-0.80;99.90
52127;DHT22;38120;53.176;6.614;2022-12-18T14:09:50;-0.80;99.90
52127;DHT22;38120;53.176;6.614;2022-12-18T14:12:37;-0.90;99.90
52127;DHT22;38120;53.176;6.614;2022-12-18T14:20:52;-0.90;99.90
52127;DHT22;38120;53.176;6.614;2022-12-18T14:23:33;-0.90;99.90
52127;DHT22;38120;53.176;6.614;2022-12-18T14:26:01;-0.90;99.90
52127;DHT22;38120;53.176;6.614;2022-12-18T14:28:27;-0.90;99.90
52127;DHT22;38120;53.176;6.614;2022-12-18T14:30:54;-1.00;99.90
52127;DHT22;38120;53.176;6.614;2022-12-18T14:33:21;-0.90;99.90
52127;DHT22;38120;53.176;6.614;2022-12-18T14:36:00;-0.90;99.90
52127;DHT22;38120;53.176;6.614;2022-12-18T14:38:30;-1.00;99.90
52127;DHT22;38120;53.176;6.614;2022-12-18T14:41:00;-0.20;99.90
52127;DHT22;38120;53.176;6.614;2022-12-18T14:43:28;-1.00;99.90
52127;DHT22;38120;53.176;6.614;2022-12-18T14:45:54;-1.00;99.90
52127;DHT22;38120;53.176;6.614;2022-12-18T14:48:21;-1.00;99.90
52127;DHT22;38120;53.176;6.614;2022-12-18T14:51:19;-0.90;99.90
52127;DHT22;38120;53.176;6.614;2022-12-18T14:53:47;-1.00;99.90
52127;DHT22;38120;53.176;6.614;2022-12-18T14:56:25;-1.00;99.90
52127;DHT22;38120;53.176;6.614;2022-12-18T14:59:02;-1.00;99.90
52127;DHT22;38120;53.176;6.614;2022-12-18T15:01:37;-1.00;99.90
52127;DHT22;38120;53.176;6.614;2022-12-18T15:04:04;-1.00;99.90
52127;DHT22;38120;53.176;6.614;2022-12-18T15:06:34;-1.00;99.90
52127;DHT22;38120;53.176;6.614;2022-12-18T15:09:05;-1.00;99.90
52127;DHT22;38120;53.176;6.614;2022-12-18T15:11:46;-1.00;99.90
52127;DHT22;38120;53.176;6.614;2022-12-18T15:17:18;-1.00;99.90
52127;DHT22;38120;53.176;6.614;2022-12-18T15:19:45;-1.10;99.90
52127;DHT22;38120;53.176;6.614;2022-12-18T15:22:28;-1.10;99.90
52127;DHT22;38120;53.176;6.614;2022-12-18T15:24:55;-1.10;99.90
52127;DHT22;38120;53.176;6.614;2022-12-18T15:27:35;-1.10;99.90
52127;DHT22;38120;53.176;6.614;2022-12-18T15:33:17;-1.20;99.90
52127;DHT22;38120;53.176;6.614;2022-12-18T15:35:43;-1.20;99.90
52127;DHT22;38120;53.176;6.614;2022-12-18T15:38:09;-1.20;99.90
52127;DHT22;38120;53.176;6.614;2022-12-18T15:40:34;-1.20;99.90
52127;DHT22;38120;53.176;6.614;2022-12-18T15:43:00;-1.20;99.90
52127;DHT22;38120;53.176;6.614;2022-12-18T15:45:45;-1.20;99.90
52127;DHT22;38120;53.176;6.614;2022-12-18T15:48:21;-1.20;99.90
52127;DHT22;38120;53.176;6.614;2022-12-18T15:50:48;-1.20;99.90
52127;DHT22;38120;53.176;6.614;2022-12-18T15:53:17;-1.20;99.90
52127;DHT22;38120;53.176;6.614;2022-12-18T15:55:43;-1.20;99.90
52127;DHT22;38120;53.176;6.614;2022-12-18T15:58:28;-1.20;99.90
52127;DHT22;38120;53.176;6.614;2022-12-18T16:00:55;-1.20;99.90
52127;DHT22;38120;53.176;6.614;2022-12-18T16:03:21;-1.20;99.90
52127;DHT22;38120;53.176;6.614;2022-12-18T16:05:47;-1.20;99.90
52127;DHT22;38120;53.176;6.614;2022-12-18T16:08:13;-1.20;99.90
52127;DHT22;38120;53.176;6.614;2022-12-18T16:10:38;-1.10;99.90
52127;DHT22;38120;53.176;6.614;2022-12-18T16:13:04;-1.00;99.90
52127;DHT22;38120;53.176;6.614;2022-12-18T16:15:29;-1.20;99.90
52127;DHT22;38120;53.176;6.614;2022-12-18T16:17:55;-1.20;99.90
52127;DHT22;38120;53.176;6.614;2022-12-18T16:20:21;-1.20;99.90
52127;DHT22;38120;53.176;6.614;2022-12-18T16:22:48;-1.20;99.90
52127;DHT22;38120;53.176;6.614;2022-12-18T16:25:26;-1.20;99.90
52127;DHT22;38120;53.176;6.614;2022-12-18T16:27:53;-1.20;99.90
52127;DHT22;38120;53.176;6.614;2022-12-18T16:30:25;-1.10;99.90
52127;DHT22;38120;53.176;6.614;2022-12-18T16:32:53;0.20;99.90
52127;DHT22;38120;53.176;6.614;2022-12-18T16:35:19;-1.20;99.90
52127;DHT22;38120;53.176;6.614;2022-12-18T16:37:45;-0.40;99.90
52127;DHT22;38120;53.176;6.614;2022-12-18T16:40:13;-1.30;99.90
52127;DHT22;38120;53.176;6.614;2022-12-18T16:42:40;-1.10;99.90
52127;DHT22;38120;53.176;6.614;2022-12-18T16:45:10;-1.20;99.90
52127;DHT22;38120;53.176;6.614;2022-12-18T16:47:36;-0.80;99.90
52127;DHT22;38120;53.176;6.614;2022-12-18T16:50:03;-1.30;99.90
52127;DHT22;38120;53.176;6.614;2022-12-18T16:52:29;-1.30;99.90
52127;DHT22;38120;53.176;6.614;2022-12-18T16:54:55;-0.50;99.90
52127;DHT22;38120;53.176;6.614;2022-12-18T16:57:21;-1.20;99.90
52127;DHT22;38120;53.176;6.614;2022-12-18T16:59:47;-1.20;99.90
52127;DHT22;38120;53.176;6.614;2022-12-18T17:02:19;-1.20;99.90
52127;DHT22;38120;53.176;6.614;2022-12-18T17:04:45;-1.20;99.90
52127;DHT22;38120;53.176;6.614;2022-12-18T17:07:12;-1.20;99.90
52127;DHT22;38120;53.176;6.614;2022-12-18T17:09:38;-1.20;99.90
52127;DHT22;38120;53.176;6.614;2022-12-18T17:12:04;-1.10;99.90
52127;DHT22;38120;53.176;6.614;2022-12-18T17:14:31;-1.10;99.90
52127;DHT22;38120;53.176;6.614;2022-12-18T17:16:58;-1.10;99.90
52127;DHT22;38120;53.176;6.614;2022-12-18T17:19:24;-1.00;99.90
52127;DHT22;38120;53.176;6.614;2022-12-18T17:21:50;-1.00;99.90
52127;DHT22;38120;53.176;6.614;2022-12-18T17:24:27;-0.70;99.90
52127;DHT22;38120;53.176;6.614;2022-12-18T17:26:52;-1.00;99.90
52127;DHT22;38120;53.176;6.614;2022-12-18T17:29:19;-1.00;99.90
52127;DHT22;38120;53.176;6.614;2022-12-18T17:31:46;-1.00;99.90
52127;DHT22;38120;53.176;6.614;2022-12-18T17:34:12;-0.90;99.90
52127;DHT22;38120;53.176;6.614;2022-12-18T17:36:39;-0.90;99.90
52127;DHT22;38120;53.176;6.614;2022-12-18T17:39:06;-0.90;99.90
52127;DHT22;38120;53.176;6.614;2022-12-18T17:41:32;-0.90;99.90
52127;DHT22;38120;53.176;6.614;2022-12-18T17:43:59;-0.90;99.90